createdAt,value
2023-03-08T00:01:22.413Z,4.60
2023-03-08T00:03:55.359Z,3.97
2023-03-08T00:06:23.131Z,4.65
2023-03-08T00:08:49.936Z,4.22
2023-03-08T00:11:17.754Z,4.03
2023-03-08T00:13:44.552Z,5.15
2023-03-08T00:16:13.575Z,6.20
2023-03-08T00:18:40.685Z,3.88
2023-03-08T00:21:10.884Z,4.82
2023-03-08T00:23:37.801Z,4.28
2023-03-08T00:26:04.596Z,4.40
2023-03-08T00:28:31.505Z,4.53
2023-03-08T00:31:00.052Z,3.50
2023-03-08T00:33:28.194Z,4.05
2023-03-08T00:36:04.262Z,4.80
2023-03-08T00:38:32.792Z,4.43
2023-03-08T00:41:00.130Z,3.60
2023-03-08T00:43:29.038Z,3.70
2023-03-08T00:45:55.681Z,3.03
2023-03-08T00:48:22.883Z,4.03
2023-03-08T00:50:49.816Z,4.30
2023-03-08T00:53:16.436Z,2.45
2023-03-08T00:55:57.058Z,2.35
2023-03-08T00:58:25.511Z,3.22
2023-03-08T01:00:52.695Z,3.03
2023-03-08T01:03:21.678Z,2.45
2023-03-08T01:05:54.150Z,2.90
2023-03-08T01:08:22.608Z,3.08
2023-03-08T01:10:59.907Z,2.80
2023-03-08T01:13:29.930Z,3.20
2023-03-08T01:15:56.733Z,4.10
2023-03-08T01:18:23.344Z,2.60
2023-03-08T01:21:16.723Z,2.45
2023-03-08T01:23:43.613Z,2.58
2023-03-08T01:26:19.382Z,2.72
2023-03-08T01:28:46.568Z,3.38
2023-03-08T01:31:16.326Z,3.40
2023-03-08T01:33:44.109Z,2.42
2023-03-08T01:36:15.058Z,2.97
2023-03-08T01:38:41.811Z,2.95
2023-03-08T01:41:13.519Z,2.75
2023-03-08T01:43:40.776Z,2.13
2023-03-08T01:46:31.919Z,4.13
2023-03-08T01:49:10.601Z,2.47
2023-03-08T01:51:44.590Z,1.83
2023-03-08T01:54:14.374Z,2.70
2023-03-08T01:56:42.852Z,2.30
2023-03-08T01:59:09.877Z,2.67
2023-03-08T02:01:36.539Z,2.95
2023-03-08T02:04:03.837Z,3.47
2023-03-08T02:06:30.472Z,3.15
2023-03-08T02:08:57.671Z,3.55
2023-03-08T02:11:25.621Z,3.22
2023-03-08T02:13:54.103Z,3.97
2023-03-08T02:16:22.301Z,4.53
2023-03-08T02:18:54.838Z,4.28
2023-03-08T02:21:21.991Z,4.95
2023-03-08T02:23:48.754Z,3.22
2023-03-08T02:26:15.961Z,2.95
2023-03-08T02:28:42.866Z,3.50
2023-03-08T02:31:10.465Z,3.17
2023-03-08T02:33:37.058Z,2.80
2023-03-08T02:36:06.024Z,3.25
2023-03-08T02:38:32.646Z,4.45
2023-03-08T02:40:59.557Z,3.15
2023-03-08T02:43:26.304Z,3.72
2023-03-08T02:45:52.905Z,3.72
2023-03-08T02:48:19.930Z,3.97
2023-03-08T02:50:46.505Z,2.78
2023-03-08T02:53:13.077Z,1.85
2023-03-08T02:55:39.878Z,2.70
2023-03-08T02:58:08.485Z,2.30
2023-03-08T03:00:35.138Z,3.88
2023-03-08T03:03:01.701Z,2.28
2023-03-08T03:05:28.509Z,3.80
2023-03-08T03:07:56.738Z,2.60
2023-03-08T03:10:23.544Z,2.28
2023-03-08T03:12:50.112Z,2.17
2023-03-08T03:15:16.788Z,2.47
2023-03-08T03:17:43.381Z,2.60
2023-03-08T03:20:10.706Z,2.20
2023-03-08T03:22:37.343Z,2.47
2023-03-08T03:25:05.130Z,2.38
2023-03-08T03:27:31.801Z,2.05
2023-03-08T03:29:58.710Z,1.75
2023-03-08T03:32:25.440Z,2.08
2023-03-08T03:34:52.462Z,1.85
2023-03-08T03:37:19.104Z,2.22
2023-03-08T03:39:45.679Z,1.83
2023-03-08T03:42:12.337Z,1.55
2023-03-08T03:44:39.097Z,2.80
2023-03-08T03:47:06.068Z,2.22
2023-03-08T03:49:32.656Z,2.63
2023-03-08T03:51:59.579Z,2.20
2023-03-08T03:54:26.528Z,1.85
2023-03-08T03:56:55.353Z,2.25
2023-03-08T03:59:21.953Z,2.47
2023-03-08T04:01:48.516Z,1.90
2023-03-08T04:04:15.112Z,2.70
2023-03-08T04:06:41.857Z,1.00
2023-03-08T04:09:13.286Z,4.13
2023-03-08T04:11:40.551Z,2.55
2023-03-08T04:14:07.758Z,2.67
2023-03-08T04:16:37.164Z,2.50
2023-03-08T04:19:13.747Z,2.65
2023-03-08T04:21:40.492Z,2.30
2023-03-08T04:24:07.421Z,2.40
2023-03-08T04:26:34.281Z,2.10
2023-03-08T04:29:05.506Z,1.20
2023-03-08T04:31:34.882Z,1.40
2023-03-08T04:34:02.666Z,1.40
2023-03-08T04:36:29.466Z,2.03
2023-03-08T04:38:56.323Z,1.70
2023-03-08T04:41:23.464Z,1.35
2023-03-08T04:43:52.686Z,2.80
2023-03-08T04:46:22.676Z,2.05
2023-03-08T04:48:49.598Z,2.03
2023-03-08T04:51:17.050Z,1.70
2023-03-08T04:53:45.279Z,1.60
2023-03-08T04:56:13.940Z,4.72
2023-03-08T04:58:41.088Z,2.90
2023-03-08T05:01:15.458Z,1.80
2023-03-08T05:03:43.028Z,0.80
2023-03-08T05:06:11.328Z,1.67
2023-03-08T05:08:41.507Z,3.70
2023-03-08T05:11:08.610Z,0.93
2023-03-08T05:13:38.475Z,0.98
2023-03-08T05:16:07.030Z,1.30
2023-03-08T05:18:33.876Z,1.15
2023-03-08T05:21:03.282Z,1.90
2023-03-08T05:23:30.318Z,0.85
2023-03-08T05:25:58.997Z,3.50
2023-03-08T05:28:28.210Z,1.40
2023-03-08T05:31:05.710Z,1.35
2023-03-08T05:33:32.937Z,3.50
2023-03-08T05:35:59.719Z,2.08
2023-03-08T05:38:27.128Z,2.97
2023-03-08T05:40:53.743Z,1.95
2023-03-08T05:43:22.024Z,0.90
2023-03-08T05:45:59.632Z,3.08
2023-03-08T05:48:26.406Z,0.75
2023-03-08T05:50:54.008Z,1.95
2023-03-08T05:53:21.551Z,1.52
2023-03-08T05:55:48.368Z,2.00
2023-03-08T05:58:15.791Z,0.80
2023-03-08T06:00:42.427Z,3.60
2023-03-08T06:03:09.253Z,0.90
2023-03-08T06:05:36.074Z,1.15
2023-03-08T06:08:02.741Z,1.88
2023-03-08T06:10:29.433Z,0.75
2023-03-08T06:12:56.014Z,0.60
2023-03-08T06:15:22.701Z,1.90
2023-03-08T06:17:52.999Z,0.80
2023-03-08T06:20:19.650Z,1.27
2023-03-08T06:22:46.249Z,1.00
2023-03-08T06:25:12.853Z,4.60
2023-03-08T06:27:39.480Z,1.48
2023-03-08T06:30:06.511Z,1.48
2023-03-08T06:32:33.262Z,0.68
2023-03-08T06:34:59.842Z,0.70
2023-03-08T06:37:26.431Z,1.48
2023-03-08T06:39:53.022Z,0.80
2023-03-08T06:42:25.794Z,1.92
2023-03-08T06:44:57.910Z,1.05
2023-03-08T06:47:24.512Z,0.70
2023-03-08T06:49:53.387Z,0.80
2023-03-08T06:52:20.046Z,3.03
2023-03-08T06:54:46.610Z,1.40
2023-03-08T06:57:13.227Z,0.95
2023-03-08T06:59:39.800Z,1.42
2023-03-08T07:02:06.832Z,1.10
2023-03-08T07:04:33.470Z,0.80
2023-03-08T07:07:00.137Z,2.25
2023-03-08T07:09:26.773Z,0.70
2023-03-08T07:11:53.360Z,0.85
2023-03-08T07:14:19.913Z,0.70
2023-03-08T07:16:47.090Z,0.80
2023-03-08T07:19:13.684Z,1.83
2023-03-08T07:21:44.198Z,0.80
2023-03-08T07:24:11.787Z,0.88
2023-03-08T07:26:38.386Z,0.70
2023-03-08T07:29:05.308Z,1.05
2023-03-08T07:31:35.976Z,0.82
2023-03-08T07:34:04.163Z,0.70
2023-03-08T07:36:30.927Z,0.98
2023-03-08T07:38:57.473Z,0.68
2023-03-08T07:41:24.136Z,1.10
2023-03-08T07:43:50.727Z,0.70
2023-03-08T07:46:17.320Z,0.70
2023-03-08T07:48:43.958Z,0.63
2023-03-08T07:51:12.232Z,0.75
2023-03-08T07:53:38.923Z,0.70
2023-03-08T07:56:06.788Z,0.88
2023-03-08T07:58:33.501Z,0.85
2023-03-08T08:01:00.111Z,0.60
2023-03-08T08:03:28.561Z,0.80
2023-03-08T08:05:55.180Z,0.60
2023-03-08T08:08:21.761Z,0.80
2023-03-08T08:10:48.336Z,0.55
2023-03-08T08:13:14.939Z,0.73
2023-03-08T08:15:41.563Z,0.77
2023-03-08T08:18:08.228Z,0.80
2023-03-08T08:20:34.835Z,0.75
2023-03-08T08:23:01.543Z,0.80
2023-03-08T08:25:28.162Z,0.90
2023-03-08T08:27:54.765Z,0.90
2023-03-08T08:30:21.470Z,0.82
2023-03-08T08:32:48.163Z,0.80
2023-03-08T08:35:15.105Z,1.88
2023-03-08T08:37:41.697Z,0.90
2023-03-08T08:40:10.383Z,0.82
2023-03-08T08:42:37.002Z,1.45
2023-03-08T08:45:03.845Z,2.17
2023-03-08T08:47:30.500Z,0.80
2023-03-08T08:49:57.072Z,0.80
2023-03-08T08:52:23.699Z,0.73
2023-03-08T08:54:53.064Z,0.70
2023-03-08T08:57:19.669Z,0.70
2023-03-08T08:59:46.789Z,0.75
2023-03-08T09:02:14.651Z,0.93
2023-03-08T09:04:41.643Z,0.85
2023-03-08T09:07:08.430Z,0.75
2023-03-08T09:09:35.012Z,0.65
2023-03-08T09:12:01.795Z,0.70
2023-03-08T09:14:28.390Z,0.60
2023-03-08T09:16:55.094Z,0.40
2023-03-08T09:19:21.754Z,0.90
2023-03-08T09:21:48.392Z,0.90
2023-03-08T09:24:16.494Z,0.77
2023-03-08T09:26:43.134Z,1.00
2023-03-08T09:29:11.497Z,0.80
2023-03-08T09:31:39.097Z,0.60
2023-03-08T09:34:08.738Z,0.70
2023-03-08T09:36:41.998Z,0.70
2023-03-08T09:39:10.501Z,0.77
2023-03-08T09:41:43.746Z,1.00
2023-03-08T09:44:43.480Z,0.80
2023-03-08T09:47:39.931Z,0.30
2023-03-08T09:50:12.651Z,0.35
2023-03-08T09:52:54.378Z,0.20
2023-03-08T09:55:30.180Z,1.58
2023-03-08T09:58:04.639Z,0.65
2023-03-08T10:00:34.382Z,0.85
2023-03-08T10:03:49.721Z,0.80
2023-03-08T10:06:40.699Z,0.80
2023-03-08T10:09:27.995Z,0.60
2023-03-08T10:12:19.474Z,0.77
2023-03-08T10:15:01.885Z,1.10
2023-03-08T10:17:39.368Z,0.85
2023-03-08T10:20:31.920Z,0.80
2023-03-08T10:23:20.007Z,0.80
2023-03-08T10:25:48.387Z,0.70
2023-03-08T10:28:18.101Z,0.73
2023-03-08T10:30:50.249Z,0.70
2023-03-08T10:33:19.360Z,0.80
2023-03-08T10:36:12.482Z,0.98
2023-03-08T10:38:39.273Z,0.90
2023-03-08T10:41:13.148Z,0.80
2023-03-08T10:43:45.823Z,0.90
2023-03-08T10:46:18.035Z,0.93
2023-03-08T10:48:45.771Z,1.20
2023-03-08T10:51:21.679Z,0.70
2023-03-08T10:54:03.647Z,0.70
2023-03-08T10:56:45.055Z,1.05
2023-03-08T10:59:29.520Z,0.80
2023-03-08T11:01:59.973Z,0.93
2023-03-08T11:04:28.468Z,1.48
2023-03-08T11:06:56.407Z,1.58
2023-03-08T11:09:30.348Z,0.73
2023-03-08T11:11:58.846Z,0.70
2023-03-08T11:14:27.301Z,0.80
2023-03-08T11:17:01.997Z,0.90
2023-03-08T11:19:59.902Z,0.90
2023-03-08T11:22:36.615Z,1.25
2023-03-08T11:25:09.955Z,1.15
2023-03-08T11:27:54.431Z,0.90
2023-03-08T11:30:51.578Z,0.77
2023-03-08T11:33:31.995Z,0.90
2023-03-08T11:36:21.595Z,0.90
2023-03-08T11:39:29.117Z,1.10
2023-03-08T11:42:40.083Z,0.95
2023-03-08T11:45:27.865Z,0.70
2023-03-08T11:48:00.523Z,1.13
2023-03-08T11:50:32.384Z,0.70
2023-03-08T11:53:13.126Z,0.90
2023-03-08T11:56:02.340Z,0.85
2023-03-08T11:58:49.450Z,1.00
2023-03-08T12:01:38.859Z,0.90
2023-03-08T12:04:14.188Z,1.00
2023-03-08T12:06:45.340Z,0.80
2023-03-08T12:09:40.132Z,1.10
2023-03-08T12:12:16.645Z,0.88
2023-03-08T12:14:57.610Z,1.08
2023-03-08T12:17:53.070Z,0.85
2023-03-08T12:20:21.773Z,0.90
2023-03-08T12:23:03.889Z,0.90
2023-03-08T12:25:38.866Z,0.90
2023-03-08T12:28:18.147Z,2.78
2023-03-08T12:31:00.313Z,1.00
2023-03-08T12:33:30.271Z,0.90
2023-03-08T12:36:02.339Z,0.90
2023-03-08T12:38:38.582Z,1.30
2023-03-08T12:41:20.143Z,1.05
2023-03-08T12:43:46.816Z,1.10
2023-03-08T12:46:13.449Z,0.90
2023-03-08T12:48:48.892Z,1.38
2023-03-08T12:51:16.522Z,1.30
2023-03-08T12:53:48.981Z,1.10
2023-03-08T12:56:52.220Z,1.20
2023-03-08T12:59:18.790Z,1.10
2023-03-08T13:01:58.744Z,0.90
2023-03-08T13:04:47.309Z,0.90
2023-03-08T13:07:37.813Z,1.05
2023-03-08T13:10:20.992Z,0.93
2023-03-08T13:13:23.541Z,1.00
2023-03-08T13:16:15.956Z,1.05
2023-03-08T13:18:45.539Z,1.05
2023-03-08T13:21:30.982Z,1.30
2023-03-08T13:24:31.858Z,0.90
2023-03-08T13:27:13.413Z,0.98
2023-03-08T13:29:43.648Z,1.10
2023-03-08T13:32:21.736Z,1.13
2023-03-08T13:35:03.063Z,1.13
2023-03-08T13:37:30.431Z,1.20
2023-03-08T13:39:59.787Z,1.55
2023-03-08T13:42:28.842Z,1.75
2023-03-08T13:45:09.677Z,1.30
2023-03-08T13:47:39.421Z,1.60
2023-03-08T13:50:06.510Z,1.50
2023-03-08T13:52:36.647Z,1.23
2023-03-08T13:55:07.178Z,1.20
2023-03-08T13:57:37.665Z,1.30
2023-03-08T14:00:27.770Z,1.38
2023-03-08T14:02:55.161Z,2.65
2023-03-08T14:05:25.718Z,1.42
2023-03-08T14:08:02.876Z,1.20
2023-03-08T14:10:40.657Z,1.75
2023-03-08T14:13:20.362Z,1.60
2023-03-08T14:16:02.895Z,1.48
2023-03-08T14:18:37.218Z,3.70
2023-03-08T14:21:06.270Z,1.38
2023-03-08T15:57:27.719Z,5.63
2023-03-08T15:59:54.388Z,2.63
2023-03-08T16:02:21.335Z,2.15
2023-03-08T16:04:49.060Z,3.38
2023-03-08T16:07:17.578Z,2.15
2023-03-08T16:09:44.578Z,2.78
2023-03-08T16:12:12.055Z,6.20
2023-03-08T16:14:38.720Z,2.28
2023-03-08T16:17:05.962Z,2.10
2023-03-08T16:19:36.091Z,4.03
2023-03-08T16:22:03.608Z,1.73
2023-03-08T16:24:30.283Z,2.13
2023-03-08T16:26:57.727Z,2.83
2023-03-08T16:29:24.348Z,2.03
2023-03-08T16:31:51.592Z,2.28
2023-03-08T16:34:18.897Z,1.73
2023-03-08T16:36:45.654Z,1.95
2023-03-08T16:39:12.329Z,4.75
2023-03-08T16:41:39.684Z,2.30
2023-03-08T16:44:07.519Z,2.42
2023-03-08T16:46:34.331Z,2.20
2023-03-08T16:49:01.032Z,2.13
2023-03-08T16:51:30.427Z,2.60
2023-03-08T16:53:57.048Z,3.05
2023-03-08T16:56:26.770Z,3.58
2023-03-08T16:58:55.097Z,3.83
2023-03-08T17:01:22.532Z,2.05
2023-03-08T17:03:49.843Z,10.45
2023-03-08T17:06:20.046Z,3.40
2023-03-08T17:08:47.444Z,8.15
2023-03-08T17:11:19.295Z,2.03
2023-03-08T17:13:53.146Z,2.28
2023-03-08T17:16:25.261Z,10.20
2023-03-08T17:18:52.909Z,4.40
2023-03-08T17:21:21.739Z,7.22
2023-03-08T17:23:50.189Z,3.70
2023-03-08T17:26:18.399Z,2.10
2023-03-08T17:28:45.389Z,2.97
2023-03-08T17:31:14.534Z,2.13
2023-03-08T17:33:41.806Z,4.80
2023-03-08T17:36:09.719Z,2.10
2023-03-08T17:38:36.488Z,2.40
2023-03-08T17:41:08.636Z,2.20
2023-03-08T17:43:35.391Z,2.58
2023-03-08T17:46:28.546Z,3.70
2023-03-08T17:48:56.180Z,2.20
2023-03-08T17:51:25.888Z,1.85
2023-03-08T17:53:53.086Z,2.40
2023-03-08T17:56:22.452Z,2.20
2023-03-08T17:58:49.652Z,7.80
2023-03-08T18:01:22.795Z,1.90
2023-03-08T18:03:50.127Z,2.15
2023-03-08T18:06:29.767Z,2.65
2023-03-08T18:09:01.178Z,2.22
2023-03-08T18:11:28.714Z,2.30
2023-03-08T18:13:55.922Z,1.92
2023-03-08T18:16:23.791Z,2.42
2023-03-08T18:18:50.989Z,6.07
2023-03-08T18:21:18.669Z,2.03
2023-03-08T18:23:46.473Z,1.92
2023-03-08T18:26:15.630Z,1.92
2023-03-08T18:28:42.294Z,2.20
2023-03-08T18:31:11.476Z,8.13
2023-03-08T18:33:38.159Z,2.33
2023-03-08T18:36:05.104Z,2.10
2023-03-08T18:38:31.710Z,10.30
2023-03-08T18:40:58.306Z,2.28
2023-03-08T18:43:27.627Z,7.18
2023-03-08T18:45:56.112Z,2.15
2023-03-08T18:48:24.009Z,2.38
2023-03-08T18:50:50.702Z,2.40
2023-03-08T18:53:17.808Z,2.20
2023-03-08T18:55:55.634Z,3.78
2023-03-08T18:58:22.840Z,2.20
2023-03-08T19:00:49.492Z,2.50
2023-03-08T19:03:16.163Z,2.33
2023-03-08T19:05:43.097Z,4.75
2023-03-08T19:08:09.898Z,3.00
2023-03-08T19:10:36.685Z,2.38
2023-03-08T19:13:03.442Z,2.47
2023-03-08T19:15:30.076Z,2.30
2023-03-08T19:17:57.843Z,7.00
2023-03-08T19:20:26.387Z,8.90
2023-03-08T19:22:53.332Z,2.47
2023-03-08T19:25:19.940Z,2.20
2023-03-08T19:27:46.839Z,4.43
2023-03-08T19:30:14.242Z,2.92
2023-03-08T19:32:42.596Z,14.65
2023-03-08T19:35:09.777Z,5.60
2023-03-08T19:37:36.410Z,7.70
2023-03-08T19:40:04.876Z,8.13
2023-03-08T19:42:31.466Z,10.60
2023-03-08T19:44:58.073Z,5.88
2023-03-08T19:47:24.717Z,2.28
2023-03-08T19:49:51.426Z,4.55
2023-03-08T19:52:18.145Z,3.65
2023-03-08T19:54:46.053Z,2.53
2023-03-08T19:57:13.396Z,9.38
2023-03-08T19:59:40.119Z,4.55
2023-03-08T20:02:08.651Z,2.67
2023-03-08T20:04:36.419Z,3.38
2023-03-08T20:07:04.636Z,5.05
2023-03-08T20:09:31.396Z,12.13
2023-03-08T20:11:59.169Z,5.93
2023-03-08T20:14:27.302Z,6.22
2023-03-08T20:16:54.669Z,8.95
2023-03-08T20:19:21.515Z,3.95
2023-03-08T20:21:48.307Z,2.80
2023-03-08T20:24:18.057Z,5.15
2023-03-08T20:26:45.612Z,2.35
2023-03-08T20:29:12.366Z,3.50
2023-03-08T20:31:39.065Z,2.92
2023-03-08T20:34:05.690Z,5.80
2023-03-08T20:36:32.394Z,3.22
2023-03-08T20:38:59.797Z,6.70
2023-03-08T20:41:27.103Z,3.08
2023-03-08T20:43:55.695Z,3.28
2023-03-08T20:46:24.930Z,2.83
2023-03-08T20:48:52.187Z,9.00
2023-03-08T20:51:20.790Z,6.43
2023-03-08T20:53:52.338Z,4.32
2023-03-08T20:56:20.537Z,5.05
2023-03-08T20:58:47.569Z,4.38
2023-03-08T21:01:17.560Z,5.38
2023-03-08T21:03:45.120Z,7.30
2023-03-08T21:06:13.675Z,4.78
2023-03-08T21:08:40.849Z,6.93
2023-03-08T21:14:53.876Z,6.45
2023-03-08T21:17:21.917Z,4.05
2023-03-08T21:19:49.041Z,3.42
2023-03-08T21:22:15.722Z,4.50
2023-03-08T21:24:42.317Z,6.63
2023-03-08T21:27:08.901Z,9.57
2023-03-08T21:29:35.477Z,4.18
2023-03-08T21:32:02.160Z,7.07
2023-03-08T21:34:28.966Z,5.70
2023-03-08T21:36:55.602Z,5.45
2023-03-08T21:39:22.747Z,3.03
2023-03-08T21:41:49.617Z,2.72
2023-03-08T21:44:20.433Z,4.00
2023-03-08T21:46:48.003Z,2.80
2023-03-08T21:49:21.312Z,2.83
2023-03-08T21:51:48.673Z,5.63
2023-03-08T21:54:15.891Z,5.50
2023-03-08T21:56:43.040Z,2.80
2023-03-08T21:59:09.996Z,7.43
2023-03-08T22:01:36.649Z,3.40
2023-03-08T22:04:05.333Z,7.13
2023-03-08T22:06:32.525Z,5.05
2023-03-08T22:08:59.207Z,6.07
2023-03-08T22:11:26.047Z,3.35
2023-03-08T22:13:57.472Z,4.05
2023-03-08T22:16:25.408Z,4.20
2023-03-08T22:18:54.480Z,5.97
2023-03-08T22:21:21.760Z,6.80
2023-03-08T22:23:56.807Z,2.92
2023-03-08T22:26:25.031Z,3.00
2023-03-08T22:28:53.617Z,5.88
2023-03-08T22:31:23.649Z,3.90
2023-03-08T22:33:50.749Z,4.18
2023-03-08T22:36:18.902Z,3.13
2023-03-08T22:38:45.653Z,6.07
2023-03-08T22:41:18.955Z,5.28
2023-03-08T22:43:46.521Z,8.93
2023-03-08T22:46:16.160Z,10.88
2023-03-08T22:48:45.297Z,5.60
2023-03-08T22:51:13.405Z,9.85
2023-03-08T22:53:41.045Z,7.93
2023-03-08T22:56:15.787Z,9.68
2023-03-08T22:58:42.376Z,9.80
2023-03-08T23:01:13.595Z,10.70
2023-03-08T23:03:40.299Z,8.98
2023-03-08T23:06:07.127Z,10.77
2023-03-08T23:08:34.184Z,5.65
2023-03-08T23:11:00.960Z,3.90
2023-03-08T23:13:34.056Z,4.75
2023-03-08T23:16:01.797Z,3.00
2023-03-08T23:18:29.025Z,2.60
2023-03-08T23:20:55.852Z,2.70
2023-03-08T23:23:25.022Z,2.90
2023-03-08T23:25:52.309Z,4.40
2023-03-08T23:28:19.664Z,9.65
2023-03-08T23:30:46.341Z,12.55
2023-03-08T23:33:12.953Z,9.73
2023-03-08T23:35:39.609Z,11.45
2023-03-08T23:38:06.189Z,9.52
2023-03-08T23:40:32.827Z,11.32
2023-03-08T23:42:59.450Z,14.02
2023-03-08T23:45:26.144Z,16.88
2023-03-08T23:47:52.742Z,11.10
2023-03-08T23:50:19.332Z,10.02
2023-03-08T23:52:46.096Z,12.80
2023-03-08T23:55:12.878Z,8.60
2023-03-08T23:57:39.453Z,6.97
